This is the latest recevied weather packets stored in our database for station/object N8WJW. If no packets are shown the sender has not sent any weather packets the latest 10 day(s).
| Time | Temp. | Humidity | Pressure | Rain* | Wind** | Luminosity | Snow |
|---|---|---|---|---|---|---|---|
| 1778170182 | 13.33° C | 56% | 1013.2 hPa | 0 mm | - | 925 W/m² | - |
| 1778169878 | 11.67° C | 58% | 1013.2 hPa | 0 mm | - | 519 W/m² | - |
| 1778169574 | 12.22° C | 54% | 1013.2 hPa | 0 mm | - | 126 W/m² | - |
| 1778169270 | 13.33° C | 58% | 1013.2 hPa | 0 mm | - | 876 W/m² | - |
| 1778168967 | 12.78° C | 54% | 1013.3 hPa | 0 mm | - | 828 W/m² | - |
| 1778168664 | 11.67° C | 56% | 1013.5 hPa | 0 mm | - | 111 W/m² | - |
| 1778168362 | 11.67° C | 55% | 1013.2 hPa | 0 mm | - | 89 W/m² | - |
| 1778168058 | 12.78° C | 50% | 1013.4 hPa | 0 mm | - | 341 W/m² | - |
| 1778167754 | 12.78° C | 50% | 1013.3 hPa | 0 mm | - | 159 W/m² | - |
| 1778167450 | 12.78° C | 52% | 1013.2 hPa | 0 mm | - | 137 W/m² | - |
| 1778167146 | 12.22° C | 55% | 1013.4 hPa | 0 mm | - | 120 W/m² | - |
| 1778166843 | 11.67° C | 56% | 1013.5 hPa | 0 mm | - | 169 W/m² | - |
| 1778166540 | 12.22° C | 51% | 1013.2 hPa | 0 mm | - | 124 W/m² | - |
| 1778166237 | 12.22° C | 55% | 1013.5 hPa | 0 mm | - | 146 W/m² | - |
| 1778165933 | 12.22° C | 53% | 1013.3 hPa | 0 mm | - | 174 W/m² | - |
| 1778165629 | 12.22° C | 51% | 1013.4 hPa | 0 mm | - | 185 W/m² | - |
| 1778165327 | 12.78° C | 51% | 1013.2 hPa | 0 mm | - | 158 W/m² | - |
| 1778165024 | 11.67° C | 54% | 1013.3 hPa | 0 mm | - | 140 W/m² | - |
| 1778164720 | 11.67° C | 50% | 1013.3 hPa | 0 mm | - | 125 W/m² | - |
| 1778164418 | 11.67° C | 51% | 1013.3 hPa | 0 mm | - | 96 W/m² | - |
| 1778164114 | 11.67° C | 57% | 1013.5 hPa | 0 mm | - | 104 W/m² | - |
| 1778163810 | 11.67° C | 62% | 1013.4 hPa | 0 mm | - | 94 W/m² | - |
| 1778163507 | 11.11° C | 60% | 1013.4 hPa | 0 mm | - | 81 W/m² | - |
| 1778163203 | 11.11° C | 60% | 1013.4 hPa | 0 mm | - | 55 W/m² | - |
| 1778162900 | 11.67° C | 57% | 1013.5 hPa | 0 mm | - | 58 W/m² | - |
* Rain latest hour (hover to see other rain measurements)
** Current wind speed in m/s (hover to see current wind gust speed)